Terminal Aerodrome Forecast
Issued by NWS Charleston, WV

Current Version | Previous Version | Graphics & Text | Print | Product List | Glossary On
Versions: 1 2 3 4 5 6 7 8 9 10 11 12 13 14 15 16 17 18 19 20 21 22 23 24
000
FTUS41 KRLX 210900 AAA
TAFPKB
TAF AMD
KPKB 210903Z 2109/2206 13005KT P6SM SKC
     FM211500 20004KT P6SM SKC
     FM220000 00000KT P6SM BKN130=

USA.gov is the U.S. government's official web portal to all federal, state and local government web resources and services.